X  Close Metar Aviation Weather Data     EDLV Weeze Airport
Temperature
19°C Temperature
5°C Dewpoint
40% Humidity



Wind
16 KM/H
10 MPH
4 M/S
9 KTS



200°
SSW
Current Conditions

Clear Clear
Pressure 1013.88 (hPa) - 29.94 (inHg)
Visibility 6 (mile) - 9.7 (km)
Airport
Airport-code EDLV

Location: Weeze Airport
Distance: 23 (km)

Metar:
EDLV 131520Z 20009KT CAVOK 19/05 Q1014

Time: 13-06-2024 17:20 CEST